sensor_id;sensor_type;location;lat;lon;timestamp;P1;durP1;ratioP1;P2;durP2;ratioP2
3757;SDS011;1894;51.038;13.692;2022-10-19T00:01:15;42.03;;;22.53;;
3757;SDS011;1894;51.038;13.692;2022-10-19T00:03:47;38.43;;;23.97;;
3757;SDS011;1894;51.038;13.692;2022-10-19T00:06:20;36.27;;;20.70;;
3757;SDS011;1894;51.038;13.692;2022-10-19T00:08:57;38.23;;;20.90;;
3757;SDS011;1894;51.038;13.692;2022-10-19T00:11:28;37.43;;;21.37;;
3757;SDS011;1894;51.038;13.692;2022-10-19T00:14:02;41.60;;;20.10;;
3757;SDS011;1894;51.038;13.692;2022-10-19T00:16:31;38.77;;;20.60;;
3757;SDS011;1894;51.038;13.692;2022-10-19T00:19:03;36.67;;;21.43;;
3757;SDS011;1894;51.038;13.692;2022-10-19T00:21:38;41.50;;;20.40;;
3757;SDS011;1894;51.038;13.692;2022-10-19T00:24:06;31.47;;;18.57;;
3757;SDS011;1894;51.038;13.692;2022-10-19T00:26:34;36.37;;;19.93;;
3757;SDS011;1894;51.038;13.692;2022-10-19T00:29:02;32.63;;;18.63;;
3757;SDS011;1894;51.038;13.692;2022-10-19T00:31:30;38.57;;;22.10;;
3757;SDS011;1894;51.038;13.692;2022-10-19T00:33:58;42.43;;;21.97;;
3757;SDS011;1894;51.038;13.692;2022-10-19T00:36:29;34.60;;;19.10;;
3757;SDS011;1894;51.038;13.692;2022-10-19T00:39:01;39.30;;;21.33;;
3757;SDS011;1894;51.038;13.692;2022-10-19T00:41:33;34.03;;;20.13;;
3757;SDS011;1894;51.038;13.692;2022-10-19T00:46:59;35.13;;;19.20;;
3757;SDS011;1894;51.038;13.692;2022-10-19T00:49:32;30.10;;;17.67;;
3757;SDS011;1894;51.038;13.692;2022-10-19T00:52:08;35.73;;;20.33;;
3757;SDS011;1894;51.038;13.692;2022-10-19T00:54:43;31.20;;;18.67;;
3757;SDS011;1894;51.038;13.692;2022-10-19T00:57:13;35.60;;;20.53;;
3757;SDS011;1894;51.038;13.692;2022-10-19T00:59:41;38.37;;;21.73;;
3757;SDS011;1894;51.038;13.692;2022-10-19T01:02:10;36.30;;;20.57;;
3757;SDS011;1894;51.038;13.692;2022-10-19T01:04:38;40.67;;;20.13;;
3757;SDS011;1894;51.038;13.692;2022-10-19T01:07:11;43.10;;;21.20;;
3757;SDS011;1894;51.038;13.692;2022-10-19T01:09:39;39.53;;;20.20;;
3757;SDS011;1894;51.038;13.692;2022-10-19T01:12:21;41.20;;;22.20;;
3757;SDS011;1894;51.038;13.692;2022-10-19T01:16:02;36.33;;;19.50;;
3757;SDS011;1894;51.038;13.692;2022-10-19T01:22:31;35.73;;;18.10;;
3757;SDS011;1894;51.038;13.692;2022-10-19T01:34:26;29.80;;;18.23;;
3757;SDS011;1894;51.038;13.692;2022-10-19T01:37:14;28.50;;;15.47;;
3757;SDS011;1894;51.038;13.692;2022-10-19T01:39:56;29.40;;;15.57;;
3757;SDS011;1894;51.038;13.692;2022-10-19T01:47:45;25.20;;;13.20;;
3757;SDS011;1894;51.038;13.692;2022-10-19T01:50:30;20.00;;;11.23;;
3757;SDS011;1894;51.038;13.692;2022-10-19T01:53:01;27.80;;;13.23;;
3757;SDS011;1894;51.038;13.692;2022-10-19T01:55:33;18.80;;;12.00;;
3757;SDS011;1894;51.038;13.692;2022-10-19T01:58:09;19.60;;;12.30;;
3757;SDS011;1894;51.038;13.692;2022-10-19T02:00:41;24.00;;;13.10;;
3757;SDS011;1894;51.038;13.692;2022-10-19T02:03:11;21.67;;;11.63;;
3757;SDS011;1894;51.038;13.692;2022-10-19T02:05:39;23.10;;;10.73;;
3757;SDS011;1894;51.038;13.692;2022-10-19T02:08:09;21.70;;;11.20;;
3757;SDS011;1894;51.038;13.692;2022-10-19T02:10:42;24.77;;;11.70;;
3757;SDS011;1894;51.038;13.692;2022-10-19T02:13:11;24.80;;;11.30;;
3757;SDS011;1894;51.038;13.692;2022-10-19T02:15:41;18.10;;;10.57;;
3757;SDS011;1894;51.038;13.692;2022-10-19T02:18:14;22.67;;;9.77;;
3757;SDS011;1894;51.038;13.692;2022-10-19T02:20:48;14.93;;;9.57;;
3757;SDS011;1894;51.038;13.692;2022-10-19T02:23:16;18.33;;;9.90;;
3757;SDS011;1894;51.038;13.692;2022-10-19T02:25:47;18.43;;;9.93;;
3757;SDS011;1894;51.038;13.692;2022-10-19T02:28:14;20.90;;;9.93;;
3757;SDS011;1894;51.038;13.692;2022-10-19T02:30:42;18.43;;;10.20;;
3757;SDS011;1894;51.038;13.692;2022-10-19T02:33:09;17.83;;;10.13;;
3757;SDS011;1894;51.038;13.692;2022-10-19T02:35:37;18.80;;;10.47;;
3757;SDS011;1894;51.038;13.692;2022-10-19T02:38:05;20.80;;;10.07;;
3757;SDS011;1894;51.038;13.692;2022-10-19T02:40:37;19.50;;;9.80;;
3757;SDS011;1894;51.038;13.692;2022-10-19T02:43:10;19.23;;;9.87;;
3757;SDS011;1894;51.038;13.692;2022-10-19T02:45:42;17.80;;;9.20;;
3757;SDS011;1894;51.038;13.692;2022-10-19T02:48:18;18.73;;;10.93;;
3757;SDS011;1894;51.038;13.692;2022-10-19T02:50:49;19.40;;;9.30;;
3757;SDS011;1894;51.038;13.692;2022-10-19T02:53:17;20.03;;;9.50;;
3757;SDS011;1894;51.038;13.692;2022-10-19T02:55:45;22.40;;;10.13;;
3757;SDS011;1894;51.038;13.692;2022-10-19T02:58:14;21.50;;;10.03;;
3757;SDS011;1894;51.038;13.692;2022-10-19T03:00:42;15.87;;;9.40;;
3757;SDS011;1894;51.038;13.692;2022-10-19T03:03:09;33.63;;;10.63;;
3757;SDS011;1894;51.038;13.692;2022-10-19T03:05:36;22.43;;;8.70;;
3757;SDS011;1894;51.038;13.692;2022-10-19T03:08:03;16.27;;;9.00;;
3757;SDS011;1894;51.038;13.692;2022-10-19T03:10:30;12.20;;;7.83;;
3757;SDS011;1894;51.038;13.692;2022-10-19T03:12:58;24.37;;;11.03;;
3757;SDS011;1894;51.038;13.692;2022-10-19T03:15:25;25.70;;;10.40;;
3757;SDS011;1894;51.038;13.692;2022-10-19T03:17:55;21.73;;;10.53;;
3757;SDS011;1894;51.038;13.692;2022-10-19T03:20:22;20.00;;;11.13;;
3757;SDS011;1894;51.038;13.692;2022-10-19T03:22:49;17.93;;;11.90;;
3757;SDS011;1894;51.038;13.692;2022-10-19T03:25:24;25.53;;;13.30;;
3757;SDS011;1894;51.038;13.692;2022-10-19T03:27:51;30.27;;;12.73;;
3757;SDS011;1894;51.038;13.692;2022-10-19T03:30:18;24.93;;;12.30;;
3757;SDS011;1894;51.038;13.692;2022-10-19T03:32:45;33.73;;;12.33;;
3757;SDS011;1894;51.038;13.692;2022-10-19T03:35:13;22.80;;;13.10;;
3757;SDS011;1894;51.038;13.692;2022-10-19T03:37:40;25.13;;;13.00;;
3757;SDS011;1894;51.038;13.692;2022-10-19T03:40:07;19.87;;;12.67;;
3757;SDS011;1894;51.038;13.692;2022-10-19T03:42:35;22.13;;;13.60;;
3757;SDS011;1894;51.038;13.692;2022-10-19T03:45:04;26.43;;;12.40;;
3757;SDS011;1894;51.038;13.692;2022-10-19T03:47:32;21.47;;;12.90;;
3757;SDS011;1894;51.038;13.692;2022-10-19T03:50:02;20.60;;;13.20;;
3757;SDS011;1894;51.038;13.692;2022-10-19T03:52:31;32.70;;;14.40;;
3757;SDS011;1894;51.038;13.692;2022-10-19T03:54:58;28.07;;;13.50;;
3757;SDS011;1894;51.038;13.692;2022-10-19T03:57:25;20.53;;;14.43;;
3757;SDS011;1894;51.038;13.692;2022-10-19T03:59:52;27.70;;;14.87;;
3757;SDS011;1894;51.038;13.692;2022-10-19T04:02:19;29.73;;;14.90;;
3757;SDS011;1894;51.038;13.692;2022-10-19T04:04:46;24.37;;;13.10;;
3757;SDS011;1894;51.038;13.692;2022-10-19T04:07:13;33.73;;;13.40;;
3757;SDS011;1894;51.038;13.692;2022-10-19T04:09:40;28.73;;;14.70;;
3757;SDS011;1894;51.038;13.692;2022-10-19T04:12:07;19.70;;;13.60;;
3757;SDS011;1894;51.038;13.692;2022-10-19T04:14:34;23.57;;;13.03;;
3757;SDS011;1894;51.038;13.692;2022-10-19T04:17:21;23.97;;;13.37;;
3757;SDS011;1894;51.038;13.692;2022-10-19T04:19:49;21.20;;;13.43;;
3757;SDS011;1894;51.038;13.692;2022-10-19T04:22:16;30.07;;;11.77;;
3757;SDS011;1894;51.038;13.692;2022-10-19T04:24:43;19.83;;;10.97;;
3757;SDS011;1894;51.038;13.692;2022-10-19T04:27:13;23.40;;;10.53;;
3757;SDS011;1894;51.038;13.692;2022-10-19T04:29:40;25.60;;;11.20;;
3757;SDS011;1894;51.038;13.692;2022-10-19T04:32:07;20.43;;;9.77;;
3757;SDS011;1894;51.038;13.692;2022-10-19T04:34:34;16.73;;;9.90;;
3757;SDS011;1894;51.038;13.692;2022-10-19T04:37:05;17.63;;;9.57;;
3757;SDS011;1894;51.038;13.692;2022-10-19T04:39:32;18.97;;;9.77;;
3757;SDS011;1894;51.038;13.692;2022-10-19T04:41:59;20.40;;;10.60;;
3757;SDS011;1894;51.038;13.692;2022-10-19T04:44:27;19.27;;;9.57;;
3757;SDS011;1894;51.038;13.692;2022-10-19T04:46:54;24.40;;;11.60;;
3757;SDS011;1894;51.038;13.692;2022-10-19T04:49:21;21.30;;;11.63;;
3757;SDS011;1894;51.038;13.692;2022-10-19T04:51:48;17.50;;;10.77;;
3757;SDS011;1894;51.038;13.692;2022-10-19T04:54:15;18.93;;;11.50;;
3757;SDS011;1894;51.038;13.692;2022-10-19T04:56:42;22.50;;;11.83;;
3757;SDS011;1894;51.038;13.692;2022-10-19T04:59:09;25.87;;;10.47;;
3757;SDS011;1894;51.038;13.692;2022-10-19T05:01:36;21.83;;;11.20;;
3757;SDS011;1894;51.038;13.692;2022-10-19T05:04:07;21.20;;;11.07;;
3757;SDS011;1894;51.038;13.692;2022-10-19T05:06:36;23.10;;;11.90;;
3757;SDS011;1894;51.038;13.692;2022-10-19T05:09:03;29.23;;;11.40;;
3757;SDS011;1894;51.038;13.692;2022-10-19T05:11:30;19.57;;;10.60;;
3757;SDS011;1894;51.038;13.692;2022-10-19T05:13:57;18.73;;;10.13;;
3757;SDS011;1894;51.038;13.692;2022-10-19T05:16:24;18.63;;;10.63;;
3757;SDS011;1894;51.038;13.692;2022-10-19T05:18:52;18.70;;;10.03;;
3757;SDS011;1894;51.038;13.692;2022-10-19T05:21:25;17.50;;;9.70;;
3757;SDS011;1894;51.038;13.692;2022-10-19T05:23:54;25.87;;;9.37;;
3757;SDS011;1894;51.038;13.692;2022-10-19T05:26:23;12.97;;;9.23;;
3757;SDS011;1894;51.038;13.692;2022-10-19T05:28:53;15.83;;;9.00;;
3757;SDS011;1894;51.038;13.692;2022-10-19T05:31:25;26.03;;;9.33;;
3757;SDS011;1894;51.038;13.692;2022-10-19T05:33:55;21.90;;;11.33;;
3757;SDS011;1894;51.038;13.692;2022-10-19T05:36:27;21.33;;;10.27;;
3757;SDS011;1894;51.038;13.692;2022-10-19T05:39:04;19.13;;;10.20;;
3757;SDS011;1894;51.038;13.692;2022-10-19T05:41:34;28.20;;;8.37;;
3757;SDS011;1894;51.038;13.692;2022-10-19T05:44:04;21.40;;;9.40;;
3757;SDS011;1894;51.038;13.692;2022-10-19T05:46:32;18.53;;;8.53;;
3757;SDS011;1894;51.038;13.692;2022-10-19T05:49:00;17.20;;;9.00;;
3757;SDS011;1894;51.038;13.692;2022-10-19T05:51:27;21.23;;;9.50;;
3757;SDS011;1894;51.038;13.692;2022-10-19T05:53:55;16.07;;;8.10;;
3757;SDS011;1894;51.038;13.692;2022-10-19T05:56:24;21.13;;;9.23;;
3757;SDS011;1894;51.038;13.692;2022-10-19T05:58:54;23.83;;;8.37;;
3757;SDS011;1894;51.038;13.692;2022-10-19T06:01:23;21.43;;;8.17;;
3757;SDS011;1894;51.038;13.692;2022-10-19T06:03:54;19.50;;;9.90;;
3757;SDS011;1894;51.038;13.692;2022-10-19T06:06:23;14.20;;;7.30;;
3757;SDS011;1894;51.038;13.692;2022-10-19T06:08:52;19.33;;;8.47;;
3757;SDS011;1894;51.038;13.692;2022-10-19T06:11:22;21.90;;;8.73;;
3757;SDS011;1894;51.038;13.692;2022-10-19T06:13:53;15.60;;;8.10;;
3757;SDS011;1894;51.038;13.692;2022-10-19T06:16:22;12.83;;;7.03;;
3757;SDS011;1894;51.038;13.692;2022-10-19T06:18:52;19.83;;;7.90;;
3757;SDS011;1894;51.038;13.692;2022-10-19T06:21:21;16.50;;;7.87;;
3757;SDS011;1894;51.038;13.692;2022-10-19T06:23:55;30.33;;;7.20;;
3757;SDS011;1894;51.038;13.692;2022-10-19T06:26:25;22.23;;;7.47;;
3757;SDS011;1894;51.038;13.692;2022-10-19T06:28:54;13.47;;;6.43;;
3757;SDS011;1894;51.038;13.692;2022-10-19T06:31:29;19.50;;;7.03;;
3757;SDS011;1894;51.038;13.692;2022-10-19T06:33:59;12.03;;;5.40;;
3757;SDS011;1894;51.038;13.692;2022-10-19T06:36:28;16.40;;;6.40;;
3757;SDS011;1894;51.038;13.692;2022-10-19T06:38:56;11.90;;;5.77;;
3757;SDS011;1894;51.038;13.692;2022-10-19T06:41:25;12.53;;;5.93;;
3757;SDS011;1894;51.038;13.692;2022-10-19T06:43:53;10.10;;;4.60;;
3757;SDS011;1894;51.038;13.692;2022-10-19T06:46:22;8.00;;;4.33;;
3757;SDS011;1894;51.038;13.692;2022-10-19T06:48:53;11.00;;;4.20;;
3757;SDS011;1894;51.038;13.692;2022-10-19T06:51:24;9.40;;;3.77;;
3757;SDS011;1894;51.038;13.692;2022-10-19T06:53:53;8.80;;;3.20;;
3757;SDS011;1894;51.038;13.692;2022-10-19T06:56:23;11.23;;;2.60;;
3757;SDS011;1894;51.038;13.692;2022-10-19T06:58:51;10.20;;;2.30;;
3757;SDS011;1894;51.038;13.692;2022-10-19T07:01:20;3.73;;;1.80;;
3757;SDS011;1894;51.038;13.692;2022-10-19T07:03:51;14.03;;;3.00;;
3757;SDS011;1894;51.038;13.692;2022-10-19T07:06:19;7.63;;;1.90;;
3757;SDS011;1894;51.038;13.692;2022-10-19T07:08:48;11.80;;;2.40;;
3757;SDS011;1894;51.038;13.692;2022-10-19T07:11:16;8.30;;;2.43;;
3757;SDS011;1894;51.038;13.692;2022-10-19T07:13:48;9.53;;;2.60;;
3757;SDS011;1894;51.038;13.692;2022-10-19T07:16:17;12.30;;;3.90;;
3757;SDS011;1894;51.038;13.692;2022-10-19T07:18:47;5.70;;;2.37;;
3757;SDS011;1894;51.038;13.692;2022-10-19T07:21:17;9.53;;;2.40;;
3757;SDS011;1894;51.038;13.692;2022-10-19T07:23:46;2.43;;;1.50;;
3757;SDS011;1894;51.038;13.692;2022-10-19T07:26:21;8.00;;;2.57;;
3757;SDS011;1894;51.038;13.692;2022-10-19T07:28:54;4.67;;;1.77;;
3757;SDS011;1894;51.038;13.692;2022-10-19T07:31:23;11.13;;;1.97;;
3757;SDS011;1894;51.038;13.692;2022-10-19T07:33:52;12.27;;;2.20;;
3757;SDS011;1894;51.038;13.692;2022-10-19T07:36:25;7.20;;;1.83;;
3757;SDS011;1894;51.038;13.692;2022-10-19T07:38:54;7.10;;;2.00;;
3757;SDS011;1894;51.038;13.692;2022-10-19T07:41:23;7.30;;;1.50;;
3757;SDS011;1894;51.038;13.692;2022-10-19T07:43:51;8.70;;;2.37;;
3757;SDS011;1894;51.038;13.692;2022-10-19T07:46:23;8.40;;;2.00;;
3757;SDS011;1894;51.038;13.692;2022-10-19T07:48:54;4.30;;;1.80;;
3757;SDS011;1894;51.038;13.692;2022-10-19T07:51:21;6.33;;;2.27;;
3757;SDS011;1894;51.038;13.692;2022-10-19T07:53:49;9.30;;;3.27;;
3757;SDS011;1894;51.038;13.692;2022-10-19T07:56:23;12.27;;;2.80;;
3757;SDS011;1894;51.038;13.692;2022-10-19T07:58:53;9.20;;;2.67;;
3757;SDS011;1894;51.038;13.692;2022-10-19T08:01:23;11.60;;;3.40;;
3757;SDS011;1894;51.038;13.692;2022-10-19T08:03:56;7.47;;;2.90;;
3757;SDS011;1894;51.038;13.692;2022-10-19T08:06:45;9.80;;;3.23;;
3757;SDS011;1894;51.038;13.692;2022-10-19T08:09:12;9.70;;;2.27;;
3757;SDS011;1894;51.038;13.692;2022-10-19T08:12:00;9.50;;;3.20;;
3757;SDS011;1894;51.038;13.692;2022-10-19T08:14:27;6.27;;;2.43;;
3757;SDS011;1894;51.038;13.692;2022-10-19T08:16:54;10.30;;;2.60;;
3757;SDS011;1894;51.038;13.692;2022-10-19T08:19:21;5.90;;;2.13;;
3757;SDS011;1894;51.038;13.692;2022-10-19T08:21:49;6.67;;;2.90;;
3757;SDS011;1894;51.038;13.692;2022-10-19T08:24:17;6.40;;;2.70;;
3757;SDS011;1894;51.038;13.692;2022-10-19T08:26:45;8.63;;;2.57;;
3757;SDS011;1894;51.038;13.692;2022-10-19T08:29:17;12.20;;;3.03;;
3757;SDS011;1894;51.038;13.692;2022-10-19T08:31:46;11.43;;;3.50;;
3757;SDS011;1894;51.038;13.692;2022-10-19T08:34:15;5.10;;;2.10;;
3757;SDS011;1894;51.038;13.692;2022-10-19T08:36:42;7.90;;;3.63;;
3757;SDS011;1894;51.038;13.692;2022-10-19T08:39:10;9.97;;;2.40;;
3757;SDS011;1894;51.038;13.692;2022-10-19T08:50:45;4.30;;;2.10;;
3757;SDS011;1894;51.038;13.692;2022-10-19T08:56:17;9.07;;;2.17;;
3757;SDS011;1894;51.038;13.692;2022-10-19T08:59:29;8.57;;;3.10;;
3757;SDS011;1894;51.038;13.692;2022-10-19T09:08:09;6.80;;;2.20;;
3757;SDS011;1894;51.038;13.692;2022-10-19T09:10:43;4.50;;;2.00;;
3757;SDS011;1894;51.038;13.692;2022-10-19T09:16:28;6.37;;;2.40;;
3757;SDS011;1894;51.038;13.692;2022-10-19T09:18:55;5.73;;;2.00;;
3757;SDS011;1894;51.038;13.692;2022-10-19T09:21:23;8.03;;;1.90;;
3757;SDS011;1894;51.038;13.692;2022-10-19T09:27:15;10.30;;;1.90;;
3757;SDS011;1894;51.038;13.692;2022-10-19T09:29:54;9.43;;;2.13;;
3757;SDS011;1894;51.038;13.692;2022-10-19T09:32:36;10.93;;;1.97;;
3757;SDS011;1894;51.038;13.692;2022-10-19T09:35:06;8.77;;;2.20;;
3757;SDS011;1894;51.038;13.692;2022-10-19T09:37:53;5.83;;;2.20;;
3757;SDS011;1894;51.038;13.692;2022-10-19T09:40:23;10.30;;;2.23;;
3757;SDS011;1894;51.038;13.692;2022-10-19T09:42:56;7.33;;;2.10;;
3757;SDS011;1894;51.038;13.692;2022-10-19T09:45:58;8.70;;;3.00;;
3757;SDS011;1894;51.038;13.692;2022-10-19T09:48:40;12.70;;;2.60;;
3757;SDS011;1894;51.038;13.692;2022-10-19T09:51:16;6.73;;;2.63;;
3757;SDS011;1894;51.038;13.692;2022-10-19T09:53:45;9.50;;;2.47;;
3757;SDS011;1894;51.038;13.692;2022-10-19T09:56:19;4.70;;;2.37;;
3757;SDS011;1894;51.038;13.692;2022-10-19T09:58:49;6.00;;;2.07;;
3757;SDS011;1894;51.038;13.692;2022-10-19T10:01:36;6.50;;;1.90;;
3757;SDS011;1894;51.038;13.692;2022-10-19T10:04:12;8.83;;;2.07;;
3757;SDS011;1894;51.038;13.692;2022-10-19T10:06:43;6.97;;;2.53;;
3757;SDS011;1894;51.038;13.692;2022-10-19T10:09:17;4.10;;;1.40;;
3757;SDS011;1894;51.038;13.692;2022-10-19T10:11:52;4.63;;;1.73;;
3757;SDS011;1894;51.038;13.692;2022-10-19T10:14:31;4.60;;;1.40;;
3757;SDS011;1894;51.038;13.692;2022-10-19T10:17:04;5.37;;;1.70;;
3757;SDS011;1894;51.038;13.692;2022-10-19T10:19:50;6.83;;;1.93;;
3757;SDS011;1894;51.038;13.692;2022-10-19T10:22:22;5.07;;;1.30;;
3757;SDS011;1894;51.038;13.692;2022-10-19T10:24:56;5.70;;;1.43;;
3757;SDS011;1894;51.038;13.692;2022-10-19T10:27:28;5.83;;;1.70;;
3757;SDS011;1894;51.038;13.692;2022-10-19T10:30:04;4.10;;;1.90;;
3757;SDS011;1894;51.038;13.692;2022-10-19T10:32:46;3.93;;;2.20;;
3757;SDS011;1894;51.038;13.692;2022-10-19T10:35:19;8.27;;;2.37;;
3757;SDS011;1894;51.038;13.692;2022-10-19T10:38:24;11.40;;;2.00;;
3757;SDS011;1894;51.038;13.692;2022-10-19T10:40:58;2.30;;;1.30;;
3757;SDS011;1894;51.038;13.692;2022-10-19T10:43:31;14.53;;;2.70;;
3757;SDS011;1894;51.038;13.692;2022-10-19T10:46:05;2.83;;;1.20;;
3757;SDS011;1894;51.038;13.692;2022-10-19T10:48:43;3.33;;;1.77;;
3757;SDS011;1894;51.038;13.692;2022-10-19T10:51:22;11.30;;;3.13;;
3757;SDS011;1894;51.038;13.692;2022-10-19T10:54:05;11.83;;;1.70;;
3757;SDS011;1894;51.038;13.692;2022-10-19T10:57:15;5.60;;;1.53;;
3757;SDS011;1894;51.038;13.692;2022-10-19T11:00:04;10.17;;;1.70;;
3757;SDS011;1894;51.038;13.692;2022-10-19T11:05:38;3.53;;;1.17;;
3757;SDS011;1894;51.038;13.692;2022-10-19T11:13:49;7.00;;;1.27;;
3757;SDS011;1894;51.038;13.692;2022-10-19T11:16:40;5.80;;;1.37;;
3757;SDS011;1894;51.038;13.692;2022-10-19T11:19:12;7.23;;;1.20;;
3757;SDS011;1894;51.038;13.692;2022-10-19T11:22:13;13.17;;;1.00;;
3757;SDS011;1894;51.038;13.692;2022-10-19T11:28:33;2.70;;;0.70;;
3757;SDS011;1894;51.038;13.692;2022-10-19T11:45:39;1.93;;;0.70;;
3757;SDS011;1894;51.038;13.692;2022-10-19T11:51:02;2.37;;;0.80;;
3757;SDS011;1894;51.038;13.692;2022-10-19T11:56:51;2.30;;;0.83;;
3757;SDS011;1894;51.038;13.692;2022-10-19T12:05:53;1.73;;;0.60;;
3757;SDS011;1894;51.038;13.692;2022-10-19T12:12:01;2.43;;;0.60;;
3757;SDS011;1894;51.038;13.692;2022-10-19T12:15:02;3.73;;;1.10;;
3757;SDS011;1894;51.038;13.692;2022-10-19T12:17:37;2.40;;;0.60;;
3757;SDS011;1894;51.038;13.692;2022-10-19T12:20:12;3.63;;;0.70;;
3757;SDS011;1894;51.038;13.692;2022-10-19T12:23:06;1.30;;;0.60;;
3757;SDS011;1894;51.038;13.692;2022-10-19T12:25:53;2.13;;;0.77;;
3757;SDS011;1894;51.038;13.692;2022-10-19T12:28:25;1.80;;;0.77;;
3757;SDS011;1894;51.038;13.692;2022-10-19T12:30:57;4.77;;;0.73;;
3757;SDS011;1894;51.038;13.692;2022-10-19T12:53:37;4.00;;;0.70;;
3757;SDS011;1894;51.038;13.692;2022-10-19T13:01:58;1.57;;;0.50;;
3757;SDS011;1894;51.038;13.692;2022-10-19T13:04:10;2.47;;;0.80;;
3757;SDS011;1894;51.038;13.692;2022-10-19T13:06:42;1.27;;;0.60;;
3757;SDS011;1894;51.038;13.692;2022-10-19T13:14:56;4.23;;;0.80;;
3757;SDS011;1894;51.038;13.692;2022-10-19T13:22:40;0.90;;;0.60;;
3757;SDS011;1894;51.038;13.692;2022-10-19T13:27:47;2.87;;;0.80;;
3757;SDS011;1894;51.038;13.692;2022-10-19T14:00:19;0.93;;;0.60;;
3757;SDS011;1894;51.038;13.692;2022-10-19T14:03:05;4.50;;;0.70;;
3757;SDS011;1894;51.038;13.692;2022-10-19T14:08:57;0.80;;;0.70;;
3757;SDS011;1894;51.038;13.692;2022-10-19T14:11:42;2.10;;;0.60;;
3757;SDS011;1894;51.038;13.692;2022-10-19T14:14:14;1.30;;;0.80;;
3757;SDS011;1894;51.038;13.692;2022-10-19T14:16:49;2.20;;;0.80;;
3757;SDS011;1894;51.038;13.692;2022-10-19T14:19:40;1.63;;;0.83;;
3757;SDS011;1894;51.038;13.692;2022-10-19T14:22:18;0.60;;;0.50;;
3757;SDS011;1894;51.038;13.692;2022-10-19T14:25:00;3.70;;;0.60;;
3757;SDS011;1894;51.038;13.692;2022-10-19T14:27:45;2.10;;;0.90;;
3757;SDS011;1894;51.038;13.692;2022-10-19T14:30:26;6.83;;;0.70;;
3757;SDS011;1894;51.038;13.692;2022-10-19T14:32:58;2.17;;;0.93;;
3757;SDS011;1894;51.038;13.692;2022-10-19T14:35:29;2.60;;;0.80;;
3757;SDS011;1894;51.038;13.692;2022-10-19T14:38:00;0.90;;;0.50;;
3757;SDS011;1894;51.038;13.692;2022-10-19T14:40:32;1.47;;;0.70;;
3757;SDS011;1894;51.038;13.692;2022-10-19T14:43:20;1.17;;;0.80;;
3757;SDS011;1894;51.038;13.692;2022-10-19T14:46:06;2.30;;;0.70;;
3757;SDS011;1894;51.038;13.692;2022-10-19T14:48:41;6.57;;;0.80;;
3757;SDS011;1894;51.038;13.692;2022-10-19T14:54:02;4.03;;;0.80;;
3757;SDS011;1894;51.038;13.692;2022-10-19T15:02:18;1.27;;;0.53;;
3757;SDS011;1894;51.038;13.692;2022-10-19T15:04:53;1.67;;;0.70;;
3757;SDS011;1894;51.038;13.692;2022-10-19T15:07:25;2.00;;;0.90;;
3757;SDS011;1894;51.038;13.692;2022-10-19T15:10:27;2.30;;;0.60;;
3757;SDS011;1894;51.038;13.692;2022-10-19T15:13:02;0.77;;;0.60;;
3757;SDS011;1894;51.038;13.692;2022-10-19T15:15:32;2.03;;;0.60;;
3757;SDS011;1894;51.038;13.692;2022-10-19T15:20:30;2.13;;;0.83;;
3757;SDS011;1894;51.038;13.692;2022-10-19T15:23:28;2.70;;;0.70;;
3757;SDS011;1894;51.038;13.692;2022-10-19T15:28:54;2.30;;;0.80;;
3757;SDS011;1894;51.038;13.692;2022-10-19T15:31:46;1.40;;;0.90;;
3757;SDS011;1894;51.038;13.692;2022-10-19T15:34:21;1.50;;;1.20;;
3757;SDS011;1894;51.038;13.692;2022-10-19T15:36:58;4.13;;;1.50;;
3757;SDS011;1894;51.038;13.692;2022-10-19T15:39:35;6.10;;;1.20;;
3757;SDS011;1894;51.038;13.692;2022-10-19T15:45:33;2.20;;;0.70;;
3757;SDS011;1894;51.038;13.692;2022-10-19T15:50:38;1.00;;;0.60;;
3757;SDS011;1894;51.038;13.692;2022-10-19T15:53:10;1.90;;;0.63;;
3757;SDS011;1894;51.038;13.692;2022-10-19T15:55:37;1.73;;;0.80;;
3757;SDS011;1894;51.038;13.692;2022-10-19T15:58:04;1.00;;;0.70;;
3757;SDS011;1894;51.038;13.692;2022-10-19T16:00:31;1.17;;;0.90;;
3757;SDS011;1894;51.038;13.692;2022-10-19T16:02:58;2.57;;;0.80;;
3757;SDS011;1894;51.038;13.692;2022-10-19T16:05:25;6.80;;;0.93;;
3757;SDS011;1894;51.038;13.692;2022-10-19T16:07:56;7.07;;;2.80;;
3757;SDS011;1894;51.038;13.692;2022-10-19T16:10:24;6.10;;;3.60;;
3757;SDS011;1894;51.038;13.692;2022-10-19T16:12:52;4.47;;;1.57;;
3757;SDS011;1894;51.038;13.692;2022-10-19T16:15:20;4.77;;;1.83;;
3757;SDS011;1894;51.038;13.692;2022-10-19T16:17:49;4.30;;;1.60;;
3757;SDS011;1894;51.038;13.692;2022-10-19T16:20:23;7.37;;;1.93;;
3757;SDS011;1894;51.038;13.692;2022-10-19T16:22:53;4.80;;;1.30;;
3757;SDS011;1894;51.038;13.692;2022-10-19T16:25:21;5.00;;;1.43;;
3757;SDS011;1894;51.038;13.692;2022-10-19T16:27:48;3.43;;;1.60;;
3757;SDS011;1894;51.038;13.692;2022-10-19T16:30:15;3.93;;;2.00;;
3757;SDS011;1894;51.038;13.692;2022-10-19T16:32:43;5.87;;;2.20;;
3757;SDS011;1894;51.038;13.692;2022-10-19T16:35:10;4.03;;;1.50;;
3757;SDS011;1894;51.038;13.692;2022-10-19T16:37:37;4.20;;;1.30;;
3757;SDS011;1894;51.038;13.692;2022-10-19T16:40:04;6.13;;;2.73;;
3757;SDS011;1894;51.038;13.692;2022-10-19T16:42:32;3.13;;;1.80;;
3757;SDS011;1894;51.038;13.692;2022-10-19T16:45:00;3.90;;;1.70;;
3757;SDS011;1894;51.038;13.692;2022-10-19T16:47:28;4.10;;;2.17;;
3757;SDS011;1894;51.038;13.692;2022-10-19T16:49:56;4.60;;;1.77;;
3757;SDS011;1894;51.038;13.692;2022-10-19T16:52:26;2.63;;;1.77;;
3757;SDS011;1894;51.038;13.692;2022-10-19T16:55:00;2.23;;;1.80;;
3757;SDS011;1894;51.038;13.692;2022-10-19T16:57:27;3.40;;;2.20;;
3757;SDS011;1894;51.038;13.692;2022-10-19T16:59:54;4.13;;;3.27;;
3757;SDS011;1894;51.038;13.692;2022-10-19T17:02:22;8.70;;;5.07;;
3757;SDS011;1894;51.038;13.692;2022-10-19T17:04:49;9.97;;;4.37;;
3757;SDS011;1894;51.038;13.692;2022-10-19T17:07:16;5.70;;;3.60;;
3757;SDS011;1894;51.038;13.692;2022-10-19T17:09:45;4.90;;;2.93;;
3757;SDS011;1894;51.038;13.692;2022-10-19T17:12:17;5.20;;;3.20;;
3757;SDS011;1894;51.038;13.692;2022-10-19T17:14:45;4.57;;;3.03;;
3757;SDS011;1894;51.038;13.692;2022-10-19T17:17:12;2.83;;;2.13;;
3757;SDS011;1894;51.038;13.692;2022-10-19T17:19:39;2.83;;;2.40;;
3757;SDS011;1894;51.038;13.692;2022-10-19T17:22:06;3.30;;;2.20;;
3757;SDS011;1894;51.038;13.692;2022-10-19T17:24:33;2.80;;;1.90;;
3757;SDS011;1894;51.038;13.692;2022-10-19T17:27:02;2.23;;;1.50;;
3757;SDS011;1894;51.038;13.692;2022-10-19T17:29:29;4.57;;;2.03;;
3757;SDS011;1894;51.038;13.692;2022-10-19T17:31:57;5.53;;;1.90;;
3757;SDS011;1894;51.038;13.692;2022-10-19T17:34:24;3.73;;;1.63;;
3757;SDS011;1894;51.038;13.692;2022-10-19T17:36:52;3.93;;;1.83;;
3757;SDS011;1894;51.038;13.692;2022-10-19T17:39:21;6.57;;;1.83;;
3757;SDS011;1894;51.038;13.692;2022-10-19T17:41:55;2.90;;;1.30;;
3757;SDS011;1894;51.038;13.692;2022-10-19T17:44:27;3.77;;;1.77;;
3757;SDS011;1894;51.038;13.692;2022-10-19T17:46:56;1.73;;;1.63;;
3757;SDS011;1894;51.038;13.692;2022-10-19T17:49:24;2.10;;;1.83;;
3757;SDS011;1894;51.038;13.692;2022-10-19T17:51:51;2.83;;;2.10;;
3757;SDS011;1894;51.038;13.692;2022-10-19T17:54:18;4.47;;;2.50;;
3757;SDS011;1894;51.038;13.692;2022-10-19T17:56:46;2.73;;;2.00;;
3757;SDS011;1894;51.038;13.692;2022-10-19T17:59:13;8.60;;;3.07;;
3757;SDS011;1894;51.038;13.692;2022-10-19T18:01:41;4.60;;;2.80;;
3757;SDS011;1894;51.038;13.692;2022-10-19T18:04:08;6.97;;;3.10;;
3757;SDS011;1894;51.038;13.692;2022-10-19T18:06:36;5.07;;;2.33;;
3757;SDS011;1894;51.038;13.692;2022-10-19T18:09:05;6.63;;;3.40;;
3757;SDS011;1894;51.038;13.692;2022-10-19T18:11:35;4.93;;;2.80;;
3757;SDS011;1894;51.038;13.692;2022-10-19T18:14:06;2.87;;;2.60;;
3757;SDS011;1894;51.038;13.692;2022-10-19T18:16:39;8.83;;;3.90;;
3757;SDS011;1894;51.038;13.692;2022-10-19T18:19:14;4.90;;;3.27;;
3757;SDS011;1894;51.038;13.692;2022-10-19T18:21:44;11.97;;;4.70;;